Karratha King Bay, Australia
Current Conditions -  °F | °C
As of 9:00 PM on Thursday 30 Oct 2014 (Local Time) from YPPD Reporting Station
Clear Clear  
Wind Chill: 84°   Ceiling: Unl
Heat Index: 86°   Visibility: 6mi
Dew Point: 64°   Wind: 14mph
Humidity: 51%   Direction: 270°W
Pressure: 29.77"   Gusts: NA
Location:  20.62°S, 116.75°E
Report Text: YPPD 301300Z AUTO 27012KT 9999 // NCD 29/18 Q1008
Loading
Personal Weather Stations






























Interactive Weather Map
Tropical Storm Tracking
New forecast layout! Learn more

10-Day Weather Forecast

Advertisements
Track Severe Weather on mobile